sensor_id;sensor_type;location;lat;lon;timestamp;temperature;humidity
13848;DHT22;6994;49.752;6.094;2022-12-29T00:00:08;10.20;99.90
13848;DHT22;6994;49.752;6.094;2022-12-29T00:02:35;10.20;99.90
13848;DHT22;6994;49.752;6.094;2022-12-29T00:05:02;10.20;99.90
13848;DHT22;6994;49.752;6.094;2022-12-29T00:07:29;10.20;99.90
13848;DHT22;6994;49.752;6.094;2022-12-29T00:09:56;10.40;99.90
13848;DHT22;6994;49.752;6.094;2022-12-29T00:12:23;10.50;99.90
13848;DHT22;6994;49.752;6.094;2022-12-29T00:14:51;10.60;99.90
13848;DHT22;6994;49.752;6.094;2022-12-29T00:17:36;10.70;99.90
13848;DHT22;6994;49.752;6.094;2022-12-29T00:20:03;10.80;99.90
13848;DHT22;6994;49.752;6.094;2022-12-29T00:22:49;10.80;99.90
13848;DHT22;6994;49.752;6.094;2022-12-29T00:25:35;10.70;99.90
13848;DHT22;6994;49.752;6.094;2022-12-29T00:28:19;10.80;99.90
13848;DHT22;6994;49.752;6.094;2022-12-29T00:31:07;10.90;99.90
13848;DHT22;6994;49.752;6.094;2022-12-29T00:33:52;10.80;99.90
13848;DHT22;6994;49.752;6.094;2022-12-29T00:36:39;10.70;99.90
13848;DHT22;6994;49.752;6.094;2022-12-29T00:39:07;10.70;99.90
13848;DHT22;6994;49.752;6.094;2022-12-29T00:41:52;10.60;99.90
13848;DHT22;6994;49.752;6.094;2022-12-29T00:44:38;10.50;99.90
13848;DHT22;6994;49.752;6.094;2022-12-29T00:47:06;10.50;99.90
13848;DHT22;6994;49.752;6.094;2022-12-29T00:49:34;10.50;99.90
13848;DHT22;6994;49.752;6.094;2022-12-29T00:52:06;10.50;99.90
13848;DHT22;6994;49.752;6.094;2022-12-29T00:54:33;10.50;99.90
13848;DHT22;6994;49.752;6.094;2022-12-29T00:57:00;10.60;99.90
13848;DHT22;6994;49.752;6.094;2022-12-29T00:59:28;10.60;99.90
13848;DHT22;6994;49.752;6.094;2022-12-29T01:01:56;10.60;99.90
13848;DHT22;6994;49.752;6.094;2022-12-29T01:04:23;10.60;99.90
13848;DHT22;6994;49.752;6.094;2022-12-29T01:06:50;10.60;99.90
13848;DHT22;6994;49.752;6.094;2022-12-29T01:09:17;10.80;99.90
13848;DHT22;6994;49.752;6.094;2022-12-29T01:12:03;10.80;99.90
13848;DHT22;6994;49.752;6.094;2022-12-29T01:14:29;10.90;99.90
13848;DHT22;6994;49.752;6.094;2022-12-29T01:16:57;10.90;99.90
13848;DHT22;6994;49.752;6.094;2022-12-29T01:19:24;10.80;99.90
13848;DHT22;6994;49.752;6.094;2022-12-29T01:21:51;10.80;99.90
13848;DHT22;6994;49.752;6.094;2022-12-29T01:24:19;10.70;99.90
13848;DHT22;6994;49.752;6.094;2022-12-29T01:26:46;10.60;99.90
13848;DHT22;6994;49.752;6.094;2022-12-29T01:29:14;10.60;99.90
13848;DHT22;6994;49.752;6.094;2022-12-29T01:31:42;10.50;99.90
13848;DHT22;6994;49.752;6.094;2022-12-29T01:34:10;10.50;99.90
13848;DHT22;6994;49.752;6.094;2022-12-29T01:36:38;10.50;99.90
13848;DHT22;6994;49.752;6.094;2022-12-29T01:39:06;10.40;99.90
13848;DHT22;6994;49.752;6.094;2022-12-29T01:41:33;10.40;99.90
13848;DHT22;6994;49.752;6.094;2022-12-29T01:44:01;10.40;99.90
13848;DHT22;6994;49.752;6.094;2022-12-29T01:46:40;10.40;99.90
13848;DHT22;6994;49.752;6.094;2022-12-29T01:49:20;10.40;99.90
13848;DHT22;6994;49.752;6.094;2022-12-29T01:51:53;10.40;99.90
13848;DHT22;6994;49.752;6.094;2022-12-29T01:54:26;10.50;99.90
13848;DHT22;6994;49.752;6.094;2022-12-29T01:56:52;10.50;99.90
13848;DHT22;6994;49.752;6.094;2022-12-29T01:59:20;10.50;99.90
13848;DHT22;6994;49.752;6.094;2022-12-29T02:01:46;10.50;99.90
13848;DHT22;6994;49.752;6.094;2022-12-29T02:04:14;10.40;99.90
13848;DHT22;6994;49.752;6.094;2022-12-29T02:06:49;10.40;99.90
13848;DHT22;6994;49.752;6.094;2022-12-29T02:09:11;10.50;99.90
13848;DHT22;6994;49.752;6.094;2022-12-29T02:11:39;10.60;99.90
13848;DHT22;6994;49.752;6.094;2022-12-29T02:14:08;10.60;99.90
13848;DHT22;6994;49.752;6.094;2022-12-29T02:32:50;10.70;99.90
13848;DHT22;6994;49.752;6.094;2022-12-29T02:38:03;10.70;99.90
13848;DHT22;6994;49.752;6.094;2022-12-29T02:40:23;10.70;99.90
13848;DHT22;6994;49.752;6.094;2022-12-29T02:43:00;10.70;99.90
13848;DHT22;6994;49.752;6.094;2022-12-29T02:45:54;10.70;99.90
13848;DHT22;6994;49.752;6.094;2022-12-29T02:48:15;10.70;99.90
13848;DHT22;6994;49.752;6.094;2022-12-29T02:50:47;10.70;99.90
13848;DHT22;6994;49.752;6.094;2022-12-29T02:53:09;11.00;99.90
13848;DHT22;6994;49.752;6.094;2022-12-29T02:55:35;11.10;99.90
13848;DHT22;6994;49.752;6.094;2022-12-29T03:00:41;11.20;99.90
13848;DHT22;6994;49.752;6.094;2022-12-29T03:08:39;11.30;99.90
13848;DHT22;6994;49.752;6.094;2022-12-29T03:11:03;11.30;99.90
13848;DHT22;6994;49.752;6.094;2022-12-29T03:19:08;11.60;99.90
13848;DHT22;6994;49.752;6.094;2022-12-29T03:21:42;11.80;99.90
13848;DHT22;6994;49.752;6.094;2022-12-29T03:24:26;12.10;99.90
13848;DHT22;6994;49.752;6.094;2022-12-29T03:26:53;12.30;99.90
13848;DHT22;6994;49.752;6.094;2022-12-29T03:29:20;12.30;99.90
13848;DHT22;6994;49.752;6.094;2022-12-29T03:31:47;12.20;99.90
13848;DHT22;6994;49.752;6.094;2022-12-29T03:34:14;12.10;99.90
13848;DHT22;6994;49.752;6.094;2022-12-29T03:36:50;12.00;99.90
13848;DHT22;6994;49.752;6.094;2022-12-29T03:39:12;11.90;99.90
13848;DHT22;6994;49.752;6.094;2022-12-29T03:41:42;11.90;99.90
13848;DHT22;6994;49.752;6.094;2022-12-29T03:44:09;11.80;99.90
13848;DHT22;6994;49.752;6.094;2022-12-29T03:46:37;11.90;99.90
13848;DHT22;6994;49.752;6.094;2022-12-29T03:49:04;11.80;99.90
13848;DHT22;6994;49.752;6.094;2022-12-29T03:51:31;11.80;99.90
13848;DHT22;6994;49.752;6.094;2022-12-29T03:53:58;11.70;99.90
13848;DHT22;6994;49.752;6.094;2022-12-29T03:56:25;11.70;99.90
13848;DHT22;6994;49.752;6.094;2022-12-29T03:58:53;11.60;99.90
13848;DHT22;6994;49.752;6.094;2022-12-29T04:01:20;11.50;99.90
13848;DHT22;6994;49.752;6.094;2022-12-29T04:03:47;11.50;99.90
13848;DHT22;6994;49.752;6.094;2022-12-29T04:06:14;11.40;99.90
13848;DHT22;6994;49.752;6.094;2022-12-29T04:08:41;11.40;99.90
13848;DHT22;6994;49.752;6.094;2022-12-29T04:11:09;11.50;99.90
13848;DHT22;6994;49.752;6.094;2022-12-29T04:13:36;11.60;99.90
13848;DHT22;6994;49.752;6.094;2022-12-29T04:16:03;11.60;99.90
13848;DHT22;6994;49.752;6.094;2022-12-29T04:18:30;11.60;99.90
13848;DHT22;6994;49.752;6.094;2022-12-29T04:20:57;11.70;99.90
13848;DHT22;6994;49.752;6.094;2022-12-29T04:23:29;11.70;99.90
13848;DHT22;6994;49.752;6.094;2022-12-29T04:25:55;11.70;99.90
13848;DHT22;6994;49.752;6.094;2022-12-29T04:28:22;11.80;99.90
13848;DHT22;6994;49.752;6.094;2022-12-29T04:30:50;11.80;99.90
13848;DHT22;6994;49.752;6.094;2022-12-29T04:33:17;11.80;99.90
13848;DHT22;6994;49.752;6.094;2022-12-29T04:35:44;11.80;99.90
13848;DHT22;6994;49.752;6.094;2022-12-29T04:38:11;12.00;99.90
13848;DHT22;6994;49.752;6.094;2022-12-29T04:40:39;12.10;99.90
13848;DHT22;6994;49.752;6.094;2022-12-29T04:43:06;12.00;99.90
13848;DHT22;6994;49.752;6.094;2022-12-29T04:45:33;12.00;99.90
13848;DHT22;6994;49.752;6.094;2022-12-29T04:48:01;11.90;99.90
13848;DHT22;6994;49.752;6.094;2022-12-29T04:50:29;11.80;99.90
13848;DHT22;6994;49.752;6.094;2022-12-29T04:52:57;11.90;99.90
13848;DHT22;6994;49.752;6.094;2022-12-29T04:55:25;11.90;99.90
13848;DHT22;6994;49.752;6.094;2022-12-29T04:57:53;11.80;99.90
13848;DHT22;6994;49.752;6.094;2022-12-29T05:00:21;11.70;99.90
13848;DHT22;6994;49.752;6.094;2022-12-29T05:02:48;11.70;99.90
13848;DHT22;6994;49.752;6.094;2022-12-29T05:05:15;11.60;99.90
13848;DHT22;6994;49.752;6.094;2022-12-29T05:07:42;11.40;99.90
13848;DHT22;6994;49.752;6.094;2022-12-29T05:10:10;11.20;99.90
13848;DHT22;6994;49.752;6.094;2022-12-29T05:12:37;11.00;99.90
13848;DHT22;6994;49.752;6.094;2022-12-29T05:15:04;10.90;99.90
13848;DHT22;6994;49.752;6.094;2022-12-29T05:17:31;10.70;99.90
13848;DHT22;6994;49.752;6.094;2022-12-29T05:19:58;10.60;99.90
13848;DHT22;6994;49.752;6.094;2022-12-29T05:22:26;10.60;99.90
13848;DHT22;6994;49.752;6.094;2022-12-29T05:24:53;10.50;99.90
13848;DHT22;6994;49.752;6.094;2022-12-29T05:27:20;10.50;99.90
13848;DHT22;6994;49.752;6.094;2022-12-29T05:29:47;10.40;99.90
13848;DHT22;6994;49.752;6.094;2022-12-29T05:32:14;10.40;99.90
13848;DHT22;6994;49.752;6.094;2022-12-29T05:34:42;10.40;99.90
13848;DHT22;6994;49.752;6.094;2022-12-29T05:37:09;10.40;99.90
13848;DHT22;6994;49.752;6.094;2022-12-29T05:39:37;10.40;99.90
13848;DHT22;6994;49.752;6.094;2022-12-29T05:42:05;10.40;99.90
13848;DHT22;6994;49.752;6.094;2022-12-29T05:44:32;10.30;99.90
13848;DHT22;6994;49.752;6.094;2022-12-29T05:46:59;10.30;99.90
13848;DHT22;6994;49.752;6.094;2022-12-29T05:49:26;10.30;99.90
13848;DHT22;6994;49.752;6.094;2022-12-29T05:51:54;10.30;99.90
13848;DHT22;6994;49.752;6.094;2022-12-29T05:54:21;10.30;99.90
13848;DHT22;6994;49.752;6.094;2022-12-29T05:56:48;10.50;99.90
13848;DHT22;6994;49.752;6.094;2022-12-29T05:59:15;10.60;99.90
13848;DHT22;6994;49.752;6.094;2022-12-29T06:01:42;10.70;99.90
13848;DHT22;6994;49.752;6.094;2022-12-29T06:04:10;10.70;99.90
13848;DHT22;6994;49.752;6.094;2022-12-29T06:06:37;10.70;99.90
13848;DHT22;6994;49.752;6.094;2022-12-29T06:09:04;10.60;99.90
13848;DHT22;6994;49.752;6.094;2022-12-29T06:11:31;10.60;99.90
13848;DHT22;6994;49.752;6.094;2022-12-29T06:13:58;10.50;99.90
13848;DHT22;6994;49.752;6.094;2022-12-29T06:16:26;10.40;99.90
13848;DHT22;6994;49.752;6.094;2022-12-29T06:18:54;10.40;99.90
13848;DHT22;6994;49.752;6.094;2022-12-29T06:21:21;10.30;99.90
13848;DHT22;6994;49.752;6.094;2022-12-29T06:23:49;10.30;99.90
13848;DHT22;6994;49.752;6.094;2022-12-29T06:26:16;10.30;99.90
13848;DHT22;6994;49.752;6.094;2022-12-29T06:28:43;10.40;99.90
13848;DHT22;6994;49.752;6.094;2022-12-29T06:31:10;10.40;99.90
13848;DHT22;6994;49.752;6.094;2022-12-29T06:33:38;10.40;99.90
13848;DHT22;6994;49.752;6.094;2022-12-29T06:36:05;10.40;99.90
13848;DHT22;6994;49.752;6.094;2022-12-29T06:38:32;10.40;99.90
13848;DHT22;6994;49.752;6.094;2022-12-29T06:40:59;10.40;99.90
13848;DHT22;6994;49.752;6.094;2022-12-29T06:43:26;10.60;99.90
13848;DHT22;6994;49.752;6.094;2022-12-29T06:45:54;10.70;99.90
13848;DHT22;6994;49.752;6.094;2022-12-29T06:48:21;10.70;99.90
13848;DHT22;6994;49.752;6.094;2022-12-29T06:50:48;10.70;99.90
13848;DHT22;6994;49.752;6.094;2022-12-29T06:53:16;10.70;99.90
13848;DHT22;6994;49.752;6.094;2022-12-29T06:55:44;10.60;99.90
13848;DHT22;6994;49.752;6.094;2022-12-29T06:58:11;10.50;99.90
13848;DHT22;6994;49.752;6.094;2022-12-29T07:00:38;10.40;99.90
13848;DHT22;6994;49.752;6.094;2022-12-29T07:03:06;10.20;99.90
13848;DHT22;6994;49.752;6.094;2022-12-29T07:05:33;10.10;99.90
13848;DHT22;6994;49.752;6.094;2022-12-29T07:08:01;10.10;99.90
13848;DHT22;6994;49.752;6.094;2022-12-29T07:10:28;10.10;99.90
13848;DHT22;6994;49.752;6.094;2022-12-29T07:12:55;10.20;99.90
13848;DHT22;6994;49.752;6.094;2022-12-29T07:15:22;10.30;99.90
13848;DHT22;6994;49.752;6.094;2022-12-29T07:17:49;10.30;99.90
13848;DHT22;6994;49.752;6.094;2022-12-29T07:20:17;10.30;99.90
13848;DHT22;6994;49.752;6.094;2022-12-29T07:22:44;10.50;99.90
13848;DHT22;6994;49.752;6.094;2022-12-29T07:25:11;10.50;99.90
13848;DHT22;6994;49.752;6.094;2022-12-29T07:27:38;10.50;99.90
13848;DHT22;6994;49.752;6.094;2022-12-29T07:30:06;10.50;99.90
13848;DHT22;6994;49.752;6.094;2022-12-29T07:32:34;10.50;99.90
13848;DHT22;6994;49.752;6.094;2022-12-29T07:35:01;10.40;99.90
13848;DHT22;6994;49.752;6.094;2022-12-29T07:37:28;10.50;99.90
13848;DHT22;6994;49.752;6.094;2022-12-29T07:39:55;10.50;99.90
13848;DHT22;6994;49.752;6.094;2022-12-29T07:42:22;10.60;99.90
13848;DHT22;6994;49.752;6.094;2022-12-29T07:44:50;10.70;99.90
13848;DHT22;6994;49.752;6.094;2022-12-29T07:47:17;10.70;99.90
13848;DHT22;6994;49.752;6.094;2022-12-29T07:49:44;10.70;99.90
13848;DHT22;6994;49.752;6.094;2022-12-29T07:52:11;10.90;99.90
13848;DHT22;6994;49.752;6.094;2022-12-29T07:54:38;11.20;99.90
13848;DHT22;6994;49.752;6.094;2022-12-29T07:57:06;11.20;99.90
13848;DHT22;6994;49.752;6.094;2022-12-29T07:59:33;11.10;99.90
13848;DHT22;6994;49.752;6.094;2022-12-29T08:02:00;11.10;99.90
13848;DHT22;6994;49.752;6.094;2022-12-29T08:04:27;11.00;99.90
13848;DHT22;6994;49.752;6.094;2022-12-29T08:06:55;10.90;99.90
13848;DHT22;6994;49.752;6.094;2022-12-29T08:09:22;10.90;99.90
13848;DHT22;6994;49.752;6.094;2022-12-29T08:11:50;10.90;99.90
13848;DHT22;6994;49.752;6.094;2022-12-29T08:14:17;10.90;99.90
13848;DHT22;6994;49.752;6.094;2022-12-29T08:16:44;10.90;99.90
13848;DHT22;6994;49.752;6.094;2022-12-29T08:19:11;10.80;99.90
13848;DHT22;6994;49.752;6.094;2022-12-29T08:21:39;10.80;99.90
13848;DHT22;6994;49.752;6.094;2022-12-29T08:24:06;10.80;99.90
13848;DHT22;6994;49.752;6.094;2022-12-29T08:26:33;10.80;99.90
13848;DHT22;6994;49.752;6.094;2022-12-29T08:29:00;10.80;99.90
13848;DHT22;6994;49.752;6.094;2022-12-29T08:31:27;10.80;99.90
13848;DHT22;6994;49.752;6.094;2022-12-29T08:33:54;10.80;99.90
13848;DHT22;6994;49.752;6.094;2022-12-29T08:36:22;10.90;99.90
13848;DHT22;6994;49.752;6.094;2022-12-29T08:38:50;10.90;99.90
13848;DHT22;6994;49.752;6.094;2022-12-29T08:41:18;10.90;99.90
13848;DHT22;6994;49.752;6.094;2022-12-29T08:43:47;10.90;99.90
13848;DHT22;6994;49.752;6.094;2022-12-29T08:46:14;10.90;99.90
13848;DHT22;6994;49.752;6.094;2022-12-29T08:48:41;10.90;99.90
13848;DHT22;6994;49.752;6.094;2022-12-29T08:51:08;10.90;99.90
13848;DHT22;6994;49.752;6.094;2022-12-29T08:53:35;11.00;99.90
13848;DHT22;6994;49.752;6.094;2022-12-29T08:56:02;11.00;99.90
13848;DHT22;6994;49.752;6.094;2022-12-29T08:58:30;11.00;99.90
13848;DHT22;6994;49.752;6.094;2022-12-29T09:00:57;11.10;99.90
13848;DHT22;6994;49.752;6.094;2022-12-29T09:03:24;11.30;99.90
13848;DHT22;6994;49.752;6.094;2022-12-29T09:05:52;11.40;99.90
13848;DHT22;6994;49.752;6.094;2022-12-29T09:08:18;11.40;99.90
13848;DHT22;6994;49.752;6.094;2022-12-29T09:10:46;11.40;99.90
13848;DHT22;6994;49.752;6.094;2022-12-29T09:13:14;11.30;99.90
13848;DHT22;6994;49.752;6.094;2022-12-29T09:15:42;11.30;99.90
13848;DHT22;6994;49.752;6.094;2022-12-29T09:18:09;11.30;99.90
13848;DHT22;6994;49.752;6.094;2022-12-29T09:20:36;11.30;99.90
13848;DHT22;6994;49.752;6.094;2022-12-29T09:23:03;11.30;99.90
13848;DHT22;6994;49.752;6.094;2022-12-29T09:25:30;11.30;99.90
13848;DHT22;6994;49.752;6.094;2022-12-29T09:27:57;11.30;99.90
13848;DHT22;6994;49.752;6.094;2022-12-29T09:30:25;11.30;99.90
13848;DHT22;6994;49.752;6.094;2022-12-29T09:32:52;11.20;99.90
13848;DHT22;6994;49.752;6.094;2022-12-29T09:35:19;11.40;99.90
13848;DHT22;6994;49.752;6.094;2022-12-29T09:37:46;11.50;99.90
13848;DHT22;6994;49.752;6.094;2022-12-29T09:40:24;11.40;99.90
13848;DHT22;6994;49.752;6.094;2022-12-29T09:48:34;11.50;99.90
13848;DHT22;6994;49.752;6.094;2022-12-29T09:51:00;11.50;99.90
13848;DHT22;6994;49.752;6.094;2022-12-29T09:53:41;11.50;99.90
13848;DHT22;6994;49.752;6.094;2022-12-29T09:56:10;11.50;99.90
13848;DHT22;6994;49.752;6.094;2022-12-29T09:58:44;11.50;99.90
13848;DHT22;6994;49.752;6.094;2022-12-29T10:01:09;11.50;99.90
13848;DHT22;6994;49.752;6.094;2022-12-29T10:06:15;12.00;99.90
13848;DHT22;6994;49.752;6.094;2022-12-29T10:11:52;12.00;99.90
13848;DHT22;6994;49.752;6.094;2022-12-29T10:17:13;11.80;99.90
13848;DHT22;6994;49.752;6.094;2022-12-29T10:22:32;11.60;99.90
13848;DHT22;6994;49.752;6.094;2022-12-29T10:24:56;11.60;99.90
13848;DHT22;6994;49.752;6.094;2022-12-29T10:27:26;11.50;99.90
13848;DHT22;6994;49.752;6.094;2022-12-29T10:29:55;11.40;99.90
13848;DHT22;6994;49.752;6.094;2022-12-29T10:32:27;11.40;99.90
13848;DHT22;6994;49.752;6.094;2022-12-29T10:34:54;11.40;99.90
13848;DHT22;6994;49.752;6.094;2022-12-29T10:37:38;11.40;99.90
13848;DHT22;6994;49.752;6.094;2022-12-29T10:40:03;11.30;99.90
13848;DHT22;6994;49.752;6.094;2022-12-29T10:42:34;11.30;99.90
13848;DHT22;6994;49.752;6.094;2022-12-29T10:44:57;11.30;99.90
13848;DHT22;6994;49.752;6.094;2022-12-29T10:47:26;11.30;99.90
13848;DHT22;6994;49.752;6.094;2022-12-29T10:49:53;11.40;99.90
13848;DHT22;6994;49.752;6.094;2022-12-29T10:52:21;11.30;99.90
13848;DHT22;6994;49.752;6.094;2022-12-29T10:57:38;11.30;99.90
13848;DHT22;6994;49.752;6.094;2022-12-29T11:00:17;11.30;99.90
13848;DHT22;6994;49.752;6.094;2022-12-29T11:05:57;11.30;99.90
13848;DHT22;6994;49.752;6.094;2022-12-29T11:08:19;11.30;99.90
13848;DHT22;6994;49.752;6.094;2022-12-29T11:10:43;11.40;99.90
13848;DHT22;6994;49.752;6.094;2022-12-29T11:13:19;11.30;99.90
13848;DHT22;6994;49.752;6.094;2022-12-29T11:15:48;11.30;99.90
13848;DHT22;6994;49.752;6.094;2022-12-29T11:18:24;11.40;99.90
13848;DHT22;6994;49.752;6.094;2022-12-29T11:20:52;11.40;99.90
13848;DHT22;6994;49.752;6.094;2022-12-29T11:23:29;11.70;99.90
13848;DHT22;6994;49.752;6.094;2022-12-29T11:26:13;11.90;99.90
13848;DHT22;6994;49.752;6.094;2022-12-29T11:28:40;11.90;99.90
13848;DHT22;6994;49.752;6.094;2022-12-29T11:31:07;11.90;99.90
13848;DHT22;6994;49.752;6.094;2022-12-29T11:33:35;11.90;99.90
13848;DHT22;6994;49.752;6.094;2022-12-29T11:36:09;11.90;99.90
13848;DHT22;6994;49.752;6.094;2022-12-29T11:38:36;11.90;99.90
13848;DHT22;6994;49.752;6.094;2022-12-29T11:41:02;12.10;99.90
13848;DHT22;6994;49.752;6.094;2022-12-29T11:43:33;12.20;99.90
13848;DHT22;6994;49.752;6.094;2022-12-29T11:46:01;12.10;99.90
13848;DHT22;6994;49.752;6.094;2022-12-29T11:48:33;12.10;99.90
13848;DHT22;6994;49.752;6.094;2022-12-29T11:51:00;12.00;99.90
13848;DHT22;6994;49.752;6.094;2022-12-29T11:53:42;12.00;99.90
13848;DHT22;6994;49.752;6.094;2022-12-29T11:56:13;11.90;99.90
13848;DHT22;6994;49.752;6.094;2022-12-29T11:58:37;11.90;99.90
13848;DHT22;6994;49.752;6.094;2022-12-29T12:01:16;11.90;99.90
13848;DHT22;6994;49.752;6.094;2022-12-29T12:03:45;11.90;99.90
13848;DHT22;6994;49.752;6.094;2022-12-29T12:06:11;12.00;99.90
13848;DHT22;6994;49.752;6.094;2022-12-29T12:08:42;12.10;99.90
13848;DHT22;6994;49.752;6.094;2022-12-29T12:11:18;12.00;99.90
13848;DHT22;6994;49.752;6.094;2022-12-29T12:16:18;12.30;99.90
13848;DHT22;6994;49.752;6.094;2022-12-29T12:18:48;12.40;99.90
13848;DHT22;6994;49.752;6.094;2022-12-29T12:21:18;12.60;99.90
13848;DHT22;6994;49.752;6.094;2022-12-29T12:26:38;12.60;99.90
13848;DHT22;6994;49.752;6.094;2022-12-29T12:29:14;12.60;99.90
13848;DHT22;6994;49.752;6.094;2022-12-29T12:34:13;12.40;99.90
13848;DHT22;6994;49.752;6.094;2022-12-29T12:37:50;12.30;99.90
13848;DHT22;6994;49.752;6.094;2022-12-29T12:39:27;12.30;99.90
13848;DHT22;6994;49.752;6.094;2022-12-29T12:42:03;12.70;99.90
13848;DHT22;6994;49.752;6.094;2022-12-29T12:47:09;13.10;99.90
13848;DHT22;6994;49.752;6.094;2022-12-29T12:54:55;13.10;99.90
13848;DHT22;6994;49.752;6.094;2022-12-29T12:57:49;13.10;99.90
13848;DHT22;6994;49.752;6.094;2022-12-29T13:00:17;13.00;99.90
13848;DHT22;6994;49.752;6.094;2022-12-29T13:05:29;12.90;99.90
13848;DHT22;6994;49.752;6.094;2022-12-29T13:08:03;12.70;99.90
13848;DHT22;6994;49.752;6.094;2022-12-29T13:15:53;12.30;99.90
13848;DHT22;6994;49.752;6.094;2022-12-29T13:18:35;12.20;99.90
13848;DHT22;6994;49.752;6.094;2022-12-29T13:23:30;12.10;99.90
13848;DHT22;6994;49.752;6.094;2022-12-29T13:26:00;12.10;99.90
13848;DHT22;6994;49.752;6.094;2022-12-29T13:31:00;12.30;99.90
13848;DHT22;6994;49.752;6.094;2022-12-29T13:36:18;12.40;99.90
13848;DHT22;6994;49.752;6.094;2022-12-29T13:38:51;12.40;99.90
13848;DHT22;6994;49.752;6.094;2022-12-29T13:41:24;12.40;99.90
13848;DHT22;6994;49.752;6.094;2022-12-29T13:43:46;12.50;99.90
13848;DHT22;6994;49.752;6.094;2022-12-29T13:46:15;12.60;99.90
13848;DHT22;6994;49.752;6.094;2022-12-29T13:48:46;12.60;99.90
13848;DHT22;6994;49.752;6.094;2022-12-29T13:51:10;12.60;99.90
13848;DHT22;6994;49.752;6.094;2022-12-29T13:53:52;12.60;99.90
13848;DHT22;6994;49.752;6.094;2022-12-29T13:56:29;12.60;99.90
13848;DHT22;6994;49.752;6.094;2022-12-29T13:58:53;12.30;99.90
13848;DHT22;6994;49.752;6.094;2022-12-29T14:01:34;12.20;99.90
13848;DHT22;6994;49.752;6.094;2022-12-29T14:03:58;12.10;99.90
13848;DHT22;6994;49.752;6.094;2022-12-29T14:06:31;12.00;99.90
13848;DHT22;6994;49.752;6.094;2022-12-29T14:09:04;12.20;99.90
13848;DHT22;6994;49.752;6.094;2022-12-29T14:11:38;12.30;99.90
13848;DHT22;6994;49.752;6.094;2022-12-29T14:14:16;12.50;99.90
13848;DHT22;6994;49.752;6.094;2022-12-29T14:16:40;12.50;99.90
13848;DHT22;6994;49.752;6.094;2022-12-29T14:19:11;12.50;99.90
13848;DHT22;6994;49.752;6.094;2022-12-29T14:21:37;12.40;99.90
13848;DHT22;6994;49.752;6.094;2022-12-29T14:26:53;12.10;99.90
13848;DHT22;6994;49.752;6.094;2022-12-29T14:31:56;11.80;99.90
13848;DHT22;6994;49.752;6.094;2022-12-29T14:34:27;11.60;99.90
13848;DHT22;6994;49.752;6.094;2022-12-29T14:37:00;11.50;99.90
13848;DHT22;6994;49.752;6.094;2022-12-29T14:39:42;11.40;99.90
13848;DHT22;6994;49.752;6.094;2022-12-29T14:47:32;11.30;99.90
13848;DHT22;6994;49.752;6.094;2022-12-29T14:50:05;11.20;99.90
13848;DHT22;6994;49.752;6.094;2022-12-29T14:52:33;11.10;99.90
13848;DHT22;6994;49.752;6.094;2022-12-29T14:57:34;11.00;99.90
13848;DHT22;6994;49.752;6.094;2022-12-29T15:00:21;11.00;99.90
13848;DHT22;6994;49.752;6.094;2022-12-29T15:02:50;10.90;99.90
13848;DHT22;6994;49.752;6.094;2022-12-29T15:05:41;10.80;99.90
13848;DHT22;6994;49.752;6.094;2022-12-29T15:08:07;10.80;99.90
13848;DHT22;6994;49.752;6.094;2022-12-29T15:10:42;10.70;99.90
13848;DHT22;6994;49.752;6.094;2022-12-29T15:13:13;10.60;99.90
13848;DHT22;6994;49.752;6.094;2022-12-29T15:15:38;10.50;99.90
13848;DHT22;6994;49.752;6.094;2022-12-29T15:18:33;10.50;99.90
13848;DHT22;6994;49.752;6.094;2022-12-29T15:20:44;10.40;99.90
13848;DHT22;6994;49.752;6.094;2022-12-29T15:23:11;10.40;99.90
13848;DHT22;6994;49.752;6.094;2022-12-29T15:25:46;10.30;99.90
13848;DHT22;6994;49.752;6.094;2022-12-29T15:28:06;10.30;99.90
13848;DHT22;6994;49.752;6.094;2022-12-29T15:30:32;10.20;99.90
13848;DHT22;6994;49.752;6.094;2022-12-29T15:33:00;10.20;99.90
13848;DHT22;6994;49.752;6.094;2022-12-29T15:35:36;10.20;99.90
13848;DHT22;6994;49.752;6.094;2022-12-29T15:38:16;10.40;99.90
13848;DHT22;6994;49.752;6.094;2022-12-29T15:40:44;10.40;99.90
13848;DHT22;6994;49.752;6.094;2022-12-29T15:45:42;10.40;99.90
13848;DHT22;6994;49.752;6.094;2022-12-29T15:48:15;10.40;99.90
13848;DHT22;6994;49.752;6.094;2022-12-29T15:50:36;10.30;99.90
13848;DHT22;6994;49.752;6.094;2022-12-29T15:53:04;10.20;99.90
13848;DHT22;6994;49.752;6.094;2022-12-29T15:55:34;10.20;99.90
13848;DHT22;6994;49.752;6.094;2022-12-29T15:58:03;10.00;99.90
13848;DHT22;6994;49.752;6.094;2022-12-29T16:00:30;10.00;99.90
13848;DHT22;6994;49.752;6.094;2022-12-29T16:02:57;10.00;99.90
13848;DHT22;6994;49.752;6.094;2022-12-29T16:05:24;9.90;99.90
13848;DHT22;6994;49.752;6.094;2022-12-29T16:07:55;9.80;99.90
13848;DHT22;6994;49.752;6.094;2022-12-29T16:10:32;9.80;99.90
13848;DHT22;6994;49.752;6.094;2022-12-29T16:13:24;9.80;99.90
13848;DHT22;6994;49.752;6.094;2022-12-29T16:15:48;9.70;99.90
13848;DHT22;6994;49.752;6.094;2022-12-29T16:18:25;9.70;99.90
13848;DHT22;6994;49.752;6.094;2022-12-29T16:20:51;9.70;99.90
13848;DHT22;6994;49.752;6.094;2022-12-29T16:23:20;9.70;99.90
13848;DHT22;6994;49.752;6.094;2022-12-29T16:25:45;9.70;99.90
13848;DHT22;6994;49.752;6.094;2022-12-29T16:28:22;9.80;99.90
13848;DHT22;6994;49.752;6.094;2022-12-29T16:30:59;9.80;99.90
13848;DHT22;6994;49.752;6.094;2022-12-29T16:33:37;9.80;99.90
13848;DHT22;6994;49.752;6.094;2022-12-29T16:35:59;9.80;99.90
13848;DHT22;6994;49.752;6.094;2022-12-29T16:38:30;9.90;99.90
13848;DHT22;6994;49.752;6.094;2022-12-29T16:40:56;9.90;99.90
13848;DHT22;6994;49.752;6.094;2022-12-29T16:43:29;9.90;99.90
13848;DHT22;6994;49.752;6.094;2022-12-29T16:48:26;9.80;99.90
13848;DHT22;6994;49.752;6.094;2022-12-29T16:51:00;9.70;99.90
13848;DHT22;6994;49.752;6.094;2022-12-29T16:55:53;9.60;99.90
13848;DHT22;6994;49.752;6.094;2022-12-29T16:58:26;9.50;99.90
13848;DHT22;6994;49.752;6.094;2022-12-29T17:00:56;9.50;99.90
13848;DHT22;6994;49.752;6.094;2022-12-29T17:03:24;9.40;99.90
13848;DHT22;6994;49.752;6.094;2022-12-29T17:05:50;9.40;99.90
13848;DHT22;6994;49.752;6.094;2022-12-29T17:08:19;9.50;99.90
13848;DHT22;6994;49.752;6.094;2022-12-29T17:10:45;9.50;99.90
13848;DHT22;6994;49.752;6.094;2022-12-29T17:13:30;9.60;99.90
13848;DHT22;6994;49.752;6.094;2022-12-29T17:15:58;9.60;99.90
13848;DHT22;6994;49.752;6.094;2022-12-29T17:18:25;9.50;99.90
13848;DHT22;6994;49.752;6.094;2022-12-29T17:20:53;9.40;99.90
13848;DHT22;6994;49.752;6.094;2022-12-29T17:23:21;9.40;99.90
13848;DHT22;6994;49.752;6.094;2022-12-29T17:25:48;9.40;99.90
13848;DHT22;6994;49.752;6.094;2022-12-29T17:28:22;9.30;99.90
13848;DHT22;6994;49.752;6.094;2022-12-29T17:30:49;9.30;99.90
13848;DHT22;6994;49.752;6.094;2022-12-29T17:33:16;9.20;99.90
13848;DHT22;6994;49.752;6.094;2022-12-29T17:35:43;9.20;99.90
13848;DHT22;6994;49.752;6.094;2022-12-29T17:38:21;9.40;99.90
13848;DHT22;6994;49.752;6.094;2022-12-29T17:40:43;9.50;99.90
13848;DHT22;6994;49.752;6.094;2022-12-29T17:43:14;9.40;99.90
13848;DHT22;6994;49.752;6.094;2022-12-29T17:45:41;9.40;99.90
13848;DHT22;6994;49.752;6.094;2022-12-29T17:48:14;9.50;99.90